createdAt,value
2023-02-11T00:00:41.743Z,91.29
2023-02-11T00:03:08.314Z,91.54
2023-02-11T00:05:34.908Z,91.46
2023-02-11T00:08:01.237Z,91.60
2023-02-11T00:10:27.549Z,91.88
2023-02-11T00:12:53.839Z,91.84
2023-02-11T00:15:21.078Z,91.78
2023-02-11T00:17:47.508Z,92.13
2023-02-11T00:20:13.887Z,91.88
2023-02-11T00:22:40.153Z,91.69
2023-02-11T00:25:06.613Z,91.68
2023-02-11T00:27:33.274Z,90.55
2023-02-11T00:30:00.457Z,90.35
2023-02-11T00:32:26.745Z,90.19
2023-02-11T00:34:55.062Z,90.15
2023-02-11T00:37:21.789Z,90.03
2023-02-11T00:39:48.296Z,90.21
2023-02-11T00:42:15.150Z,89.83
2023-02-11T00:44:41.552Z,89.83
2023-02-11T00:47:07.915Z,89.93
2023-02-11T00:49:34.238Z,90.02
2023-02-11T00:52:00.517Z,88.97
2023-02-11T00:54:29.037Z,89.11
2023-02-11T00:56:56.277Z,89.22
2023-02-11T00:59:22.631Z,89.42
2023-02-11T01:01:48.996Z,89.25
2023-02-11T01:04:15.329Z,89.22
2023-02-11T01:06:41.636Z,88.88
2023-02-11T01:09:07.947Z,88.95
2023-02-11T01:11:34.267Z,89.27
2023-02-11T01:14:00.629Z,88.89
2023-02-11T01:16:27.016Z,89.13
2023-02-11T01:18:53.432Z,88.92
2023-02-11T01:21:19.915Z,89.34
2023-02-11T01:23:46.293Z,89.37
2023-02-11T01:26:13.339Z,89.59
2023-02-11T01:28:40.030Z,89.93
2023-02-11T01:31:06.532Z,89.38
2023-02-11T01:33:32.913Z,89.45
2023-02-11T01:36:04.333Z,88.90
2023-02-11T01:38:31.167Z,89.05
2023-02-11T01:40:58.924Z,88.96
2023-02-11T01:43:27.656Z,89.00
2023-02-11T01:46:02.636Z,88.96
2023-02-11T01:48:31.789Z,88.76
2023-02-11T01:51:09.164Z,88.63
2023-02-11T01:53:57.160Z,88.59
2023-02-11T01:56:44.344Z,88.28
2023-02-11T01:59:18.352Z,88.36
2023-02-11T02:01:50.941Z,88.68
2023-02-11T02:04:19.049Z,89.05
2023-02-11T02:06:59.671Z,88.02
2023-02-11T02:09:30.074Z,88.10
2023-02-11T02:11:56.432Z,87.78
2023-02-11T02:14:22.792Z,87.60
2023-02-11T02:16:49.204Z,87.94
2023-02-11T02:19:30.509Z,88.22
2023-02-11T02:22:29.352Z,88.68
2023-02-11T02:25:30.890Z,88.73
2023-02-11T02:28:44.690Z,89.09
2023-02-11T02:31:40.057Z,88.87
2023-02-11T02:34:30.724Z,88.70
2023-02-11T02:37:12.841Z,88.52
2023-02-11T02:39:39.652Z,88.12
2023-02-11T02:42:06.296Z,88.16
2023-02-11T02:44:33.585Z,88.06
2023-02-11T02:46:59.995Z,88.66
2023-02-11T02:49:26.308Z,88.70
2023-02-11T02:52:05.968Z,88.33
2023-02-11T02:54:59.753Z,87.84
2023-02-11T02:58:20.526Z,88.09
2023-02-11T03:01:12.877Z,88.01
2023-02-11T03:04:16.846Z,88.62
2023-02-11T03:07:01.815Z,88.80
2023-02-11T03:09:36.954Z,89.04
2023-02-11T03:12:05.930Z,89.70
2023-02-11T03:14:33.623Z,90.07
2023-02-11T03:17:03.366Z,90.01
2023-02-11T03:19:37.492Z,90.18
2023-02-11T03:22:08.059Z,90.10
2023-02-11T03:24:38.154Z,90.01
2023-02-11T03:27:19.545Z,89.86
2023-02-11T03:30:01.050Z,90.53
2023-02-11T03:32:36.376Z,89.82
2023-02-11T03:35:20.046Z,89.44
2023-02-11T03:37:55.209Z,88.86
2023-02-11T03:40:29.507Z,88.69
2023-02-11T03:43:05.341Z,88.64
2023-02-11T03:45:32.081Z,88.46
2023-02-11T03:48:08.845Z,88.26
2023-02-11T03:50:37.144Z,88.35
2023-02-11T03:53:04.245Z,88.73
2023-02-11T03:55:35.048Z,88.04
2023-02-11T03:58:01.490Z,88.57
2023-02-11T04:00:42.140Z,87.95
2023-02-11T04:03:09.571Z,88.40
2023-02-11T04:05:36.499Z,88.55
2023-02-11T04:08:03.305Z,89.44
2023-02-11T04:10:29.980Z,90.03
2023-02-11T04:12:56.566Z,90.57
2023-02-11T04:15:23.214Z,91.39
2023-02-11T04:17:49.775Z,92.47
2023-02-11T04:20:16.431Z,92.58
2023-02-11T04:22:42.784Z,91.71
2023-02-11T04:25:09.822Z,91.81
2023-02-11T04:27:36.608Z,91.50
2023-02-11T04:30:07.051Z,91.74
2023-02-11T04:32:33.417Z,92.25
2023-02-11T04:34:59.720Z,92.89
2023-02-11T04:37:26.034Z,93.19
2023-02-11T04:39:52.322Z,92.55
2023-02-11T04:42:18.709Z,92.74
2023-02-11T04:44:45.031Z,92.82
2023-02-11T04:47:13.382Z,92.84
2023-02-11T04:49:39.709Z,92.37
2023-02-11T04:52:06.204Z,92.20
2023-02-11T04:54:32.532Z,92.14
2023-02-11T04:56:58.839Z,91.91
2023-02-11T04:59:25.248Z,92.40
2023-02-11T05:01:51.576Z,91.72
2023-02-11T05:04:18.399Z,92.77
2023-02-11T05:06:44.892Z,93.24
2023-02-11T05:09:12.510Z,93.47
2023-02-11T05:11:42.263Z,93.90
2023-02-11T05:14:08.623Z,94.33
2023-02-11T05:16:35.169Z,94.64
2023-02-11T05:19:01.643Z,94.67
2023-02-11T05:21:28.067Z,94.34
2023-02-11T05:23:54.423Z,94.13
2023-02-11T05:26:20.811Z,94.15
2023-02-11T05:28:47.324Z,93.52
2023-02-11T05:31:14.593Z,92.93
2023-02-11T05:33:41.448Z,92.17
2023-02-11T05:36:10.103Z,92.14
2023-02-11T05:38:37.567Z,91.82
2023-02-11T05:41:05.202Z,92.18
2023-02-11T05:43:31.808Z,92.07
2023-02-11T05:45:58.304Z,91.67
2023-02-11T05:48:24.646Z,90.67
2023-02-11T05:50:50.932Z,89.70
2023-02-11T05:53:17.401Z,88.96
2023-02-11T05:55:43.888Z,88.66
2023-02-11T05:58:10.433Z,89.56
2023-02-11T06:00:37.110Z,90.17
2023-02-11T06:03:04.520Z,90.47
2023-02-11T06:05:31.164Z,90.55
2023-02-11T06:07:57.660Z,90.79
2023-02-11T06:10:24.088Z,90.92
2023-02-11T06:12:50.401Z,91.21
2023-02-11T06:15:16.802Z,91.28
2023-02-11T06:17:43.123Z,91.75
2023-02-11T06:20:10.488Z,92.16
2023-02-11T06:22:36.989Z,92.61
2023-02-11T06:25:03.811Z,92.97
2023-02-11T06:27:30.306Z,93.43
2023-02-11T06:29:56.929Z,93.37
2023-02-11T06:32:43.232Z,93.18
2023-02-11T06:35:11.946Z,92.80
2023-02-11T06:37:39.235Z,92.83
2023-02-11T06:40:06.222Z,92.83
2023-02-11T06:42:32.537Z,93.03
2023-02-11T06:44:58.853Z,93.10
2023-02-11T06:47:25.200Z,93.13
2023-02-11T06:49:51.539Z,92.87
2023-02-11T06:52:17.846Z,93.13
2023-02-11T06:54:44.246Z,93.22
2023-02-11T06:57:10.528Z,93.15
2023-02-11T06:59:36.824Z,93.29
2023-02-11T07:02:03.232Z,93.54
2023-02-11T07:04:29.644Z,93.80
2023-02-11T07:06:55.955Z,94.12
2023-02-11T07:09:22.221Z,94.72
2023-02-11T07:11:48.582Z,94.88
2023-02-11T07:14:15.210Z,94.92
2023-02-11T07:16:41.568Z,95.77
2023-02-11T07:19:07.948Z,95.46
2023-02-11T07:21:34.265Z,95.54
2023-02-11T07:24:01.044Z,95.74
2023-02-11T07:26:28.790Z,94.38
2023-02-11T07:28:55.640Z,93.21
2023-02-11T07:31:27.913Z,93.06
2023-02-11T07:33:57.451Z,92.76
2023-02-11T07:36:24.178Z,91.65
2023-02-11T07:38:50.530Z,90.82
2023-02-11T07:41:21.160Z,89.75
2023-02-11T07:43:47.782Z,88.25
2023-02-11T07:46:17.295Z,88.12
2023-02-11T07:48:43.593Z,88.11
2023-02-11T07:51:16.767Z,87.42
2023-02-11T07:53:43.890Z,87.49
2023-02-11T07:56:11.244Z,87.44
2023-02-11T07:58:38.032Z,87.60
2023-02-11T08:01:06.351Z,88.09
2023-02-11T08:03:33.738Z,88.14
2023-02-11T08:06:11.962Z,86.83
2023-02-11T08:08:39.036Z,85.77
2023-02-11T08:11:09.808Z,85.44
2023-02-11T08:13:36.456Z,84.73
2023-02-11T08:16:05.801Z,83.31
2023-02-11T08:18:33.201Z,82.88
2023-02-11T08:21:10.144Z,82.93
2023-02-11T08:23:38.358Z,82.54
2023-02-11T08:26:07.151Z,82.46
2023-02-11T08:28:36.436Z,81.84
2023-02-11T08:31:14.320Z,80.86
2023-02-11T08:33:41.617Z,79.02
2023-02-11T08:36:14.385Z,78.42
2023-02-11T08:38:41.567Z,79.29
2023-02-11T08:41:08.584Z,79.01
2023-02-11T08:43:36.445Z,79.26
2023-02-11T08:46:03.841Z,77.61
2023-02-11T08:48:30.288Z,78.40
2023-02-11T08:50:57.577Z,77.84
2023-02-11T08:53:24.360Z,77.09
2023-02-11T08:55:55.191Z,75.92
2023-02-11T08:58:22.353Z,75.42
2023-02-11T09:00:49.948Z,74.55
2023-02-11T09:03:16.748Z,73.02
2023-02-11T09:05:49.691Z,71.97
2023-02-11T09:08:16.865Z,72.64
2023-02-11T09:10:43.356Z,72.82
2023-02-11T09:13:09.970Z,73.00
2023-02-11T09:15:36.374Z,72.55
2023-02-11T09:18:05.037Z,72.66
2023-02-11T09:20:31.400Z,71.52
2023-02-11T09:22:59.037Z,70.89
2023-02-11T09:25:25.712Z,69.97
2023-02-11T09:27:53.680Z,69.06
2023-02-11T09:30:20.036Z,68.76
2023-02-11T09:32:46.458Z,68.66
2023-02-11T09:35:12.794Z,68.19
2023-02-11T09:37:39.233Z,65.40
2023-02-11T09:40:06.083Z,64.20
2023-02-11T09:43:04.785Z,63.83
2023-02-11T09:45:32.082Z,62.82
2023-02-11T09:48:14.514Z,63.08
2023-02-11T09:50:46.905Z,62.91
2023-02-11T09:53:23.339Z,63.03
2023-02-11T09:55:55.740Z,63.72
2023-02-11T09:58:28.695Z,64.07
2023-02-11T10:01:08.540Z,63.06
2023-02-11T10:03:56.375Z,62.28
2023-02-11T10:06:42.949Z,63.05
2023-02-11T10:09:27.473Z,62.50
2023-02-11T10:12:12.502Z,62.13
2023-02-11T10:14:57.004Z,62.10
2023-02-11T10:17:38.613Z,63.51
2023-02-11T10:20:26.812Z,64.29
2023-02-11T10:22:57.322Z,65.91
2023-02-11T10:25:33.730Z,64.99
2023-02-11T10:28:01.623Z,65.33
2023-02-11T10:30:40.805Z,65.84
2023-02-11T10:33:18.642Z,66.40
2023-02-11T10:35:45.638Z,66.75
2023-02-11T10:38:12.337Z,66.25
2023-02-11T10:40:39.840Z,67.41
2023-02-11T10:43:12.537Z,68.54
2023-02-11T10:45:53.716Z,68.58
2023-02-11T10:48:49.484Z,69.90
2023-02-11T10:51:25.025Z,69.38
2023-02-11T10:54:19.314Z,69.27
2023-02-11T10:56:52.754Z,69.04
2023-02-11T10:59:25.136Z,69.69
2023-02-11T11:02:01.149Z,69.58
2023-02-11T11:04:30.589Z,69.44
2023-02-11T11:07:09.601Z,68.69
2023-02-11T11:09:46.628Z,68.40
2023-02-11T11:12:28.266Z,68.04
2023-02-11T11:14:57.023Z,68.58
2023-02-11T11:17:23.400Z,68.34
2023-02-11T11:19:49.722Z,68.22
2023-02-11T11:22:22.930Z,67.94
2023-02-11T11:24:55.186Z,67.05
2023-02-11T11:27:24.484Z,67.27
2023-02-11T11:29:55.323Z,66.69
2023-02-11T11:32:32.424Z,65.34
2023-02-11T11:35:07.708Z,65.03
2023-02-11T11:37:36.803Z,64.38
2023-02-11T11:40:21.823Z,65.74
2023-02-11T11:43:04.127Z,65.34
2023-02-11T11:45:30.552Z,64.81
2023-02-11T11:48:04.149Z,65.79
2023-02-11T11:50:47.421Z,65.99
2023-02-11T11:53:31.239Z,66.53
2023-02-11T11:56:05.236Z,67.36
2023-02-11T11:58:32.453Z,67.33
2023-02-11T12:01:18.260Z,66.44
2023-02-11T12:04:11.712Z,66.75
2023-02-11T12:07:12.487Z,65.97
2023-02-11T12:10:00.381Z,65.31
2023-02-11T12:12:46.914Z,66.14
2023-02-11T12:15:28.362Z,66.17
2023-02-11T12:18:22.088Z,66.00
2023-02-11T12:21:15.376Z,66.33
2023-02-11T12:24:05.177Z,67.21
2023-02-11T12:26:56.421Z,66.77
2023-02-11T12:29:40.922Z,66.21
2023-02-11T12:32:23.550Z,66.99
2023-02-11T12:35:08.769Z,66.68
2023-02-11T12:37:46.441Z,67.39
2023-02-11T12:40:48.362Z,68.33
2023-02-11T12:43:25.600Z,68.15
2023-02-11T12:46:07.481Z,68.14
2023-02-11T12:48:35.786Z,69.05
2023-02-11T12:51:44.035Z,68.93
2023-02-11T12:54:10.739Z,69.47
2023-02-11T12:57:03.470Z,69.80
2023-02-11T12:59:40.466Z,69.65
2023-02-11T13:02:24.607Z,70.19
2023-02-11T13:04:56.701Z,70.32
2023-02-11T13:07:29.601Z,69.99
2023-02-11T13:10:39.968Z,69.50
2023-02-11T13:13:23.200Z,70.28
2023-02-11T13:16:19.820Z,70.14
2023-02-11T13:18:57.086Z,69.49
2023-02-11T13:21:29.420Z,69.66
2023-02-11T13:24:28.007Z,69.20
2023-02-11T13:26:58.989Z,68.52
2023-02-11T13:29:49.022Z,70.53
2023-02-11T13:32:15.785Z,70.66
2023-02-11T13:34:42.059Z,70.61
2023-02-11T13:37:38.939Z,70.30
2023-02-11T13:40:24.916Z,70.54
2023-02-11T13:42:57.708Z,70.12
2023-02-11T13:45:38.867Z,70.28
2023-02-11T13:48:13.397Z,70.45
2023-02-11T13:50:47.877Z,69.84
2023-02-11T13:53:16.162Z,69.35
2023-02-11T13:55:47.673Z,70.12
2023-02-11T13:58:13.958Z,70.61
2023-02-11T14:00:40.377Z,70.68
2023-02-11T14:03:31.372Z,70.42
2023-02-11T14:06:28.491Z,70.95
2023-02-11T14:09:09.824Z,71.44
2023-02-11T14:11:56.194Z,71.49
2023-02-11T14:14:31.615Z,72.00
2023-02-11T14:17:07.228Z,72.20
2023-02-11T14:19:36.317Z,72.88
2023-02-11T14:22:05.037Z,72.68
2023-02-11T14:24:34.791Z,73.00
2023-02-11T14:27:44.497Z,72.77
2023-02-11T14:30:32.746Z,73.47
2023-02-11T14:33:17.807Z,72.84
2023-02-11T14:36:00.134Z,72.85
2023-02-11T14:38:57.435Z,73.44
2023-02-11T14:41:35.481Z,72.98
2023-02-11T14:44:06.747Z,73.08
2023-02-11T14:46:33.910Z,72.71
2023-02-11T14:49:03.502Z,72.36
2023-02-11T14:51:34.798Z,72.41
2023-02-11T14:54:17.817Z,72.50
2023-02-11T14:56:44.648Z,72.20
2023-02-11T14:59:22.454Z,72.58
2023-02-11T15:01:50.810Z,72.78
2023-02-11T15:04:28.753Z,72.73
2023-02-11T15:06:57.298Z,73.23
2023-02-11T15:09:33.177Z,72.95
2023-02-11T15:11:59.690Z,72.42
2023-02-11T15:14:30.241Z,72.28
2023-02-11T15:16:59.580Z,72.63
2023-02-11T15:19:34.111Z,72.57
2023-02-11T15:22:01.554Z,73.20
2023-02-11T15:24:34.492Z,73.54
2023-02-11T15:27:15.370Z,73.55
2023-02-11T15:29:49.045Z,72.80
2023-02-11T15:32:18.034Z,73.01
2023-02-11T15:34:48.729Z,73.51
2023-02-11T15:37:27.037Z,73.39
2023-02-11T15:39:54.242Z,73.27
2023-02-11T15:42:23.900Z,73.64
2023-02-11T15:45:07.900Z,73.70
2023-02-11T15:47:34.388Z,73.67
2023-02-11T15:50:00.879Z,73.63
2023-02-11T15:52:28.150Z,73.79
2023-02-11T15:55:00.666Z,74.02
2023-02-11T15:57:27.583Z,74.64
2023-02-11T15:59:56.116Z,74.31
2023-02-11T16:02:34.964Z,74.03
2023-02-11T16:05:09.034Z,74.41
2023-02-11T16:07:47.562Z,74.65
2023-02-11T16:10:31.590Z,74.75
2023-02-11T16:13:04.061Z,75.13
2023-02-11T16:15:30.647Z,75.21
2023-02-11T16:17:57.512Z,74.33
2023-02-11T16:20:23.851Z,74.86
2023-02-11T16:22:50.498Z,74.45
2023-02-11T16:25:19.264Z,74.18
2023-02-11T16:27:50.033Z,74.46
2023-02-11T16:30:37.394Z,74.86
2023-02-11T16:33:05.367Z,75.11
2023-02-11T16:35:32.392Z,74.90
2023-02-11T16:37:58.682Z,74.53
2023-02-11T16:40:25.109Z,75.25
2023-02-11T16:42:53.278Z,75.75
2023-02-11T16:45:19.663Z,76.08
2023-02-11T16:47:46.453Z,76.51
2023-02-11T16:50:21.733Z,76.98
2023-02-11T16:52:48.300Z,77.13
2023-02-11T16:55:15.329Z,77.16
2023-02-11T16:57:41.757Z,77.20
2023-02-11T17:00:16.752Z,77.25
2023-02-11T17:02:43.366Z,77.48
2023-02-11T17:05:19.858Z,77.51
2023-02-11T17:07:46.690Z,77.86
2023-02-11T17:10:16.049Z,77.68
2023-02-11T17:12:42.350Z,77.74
2023-02-11T17:15:09.257Z,77.63
2023-02-11T17:17:35.601Z,77.42
2023-02-11T17:20:02.066Z,77.53
2023-02-11T17:22:28.373Z,77.62
2023-02-11T17:24:56.933Z,77.71
2023-02-11T17:27:23.440Z,78.02
2023-02-11T17:29:49.816Z,77.79
2023-02-11T17:32:16.205Z,77.74
2023-02-11T17:34:42.479Z,77.63
2023-02-11T17:37:09.487Z,77.60
2023-02-11T17:39:40.049Z,77.37
2023-02-11T17:42:07.192Z,77.46
2023-02-11T17:44:33.732Z,77.94
2023-02-11T17:47:00.099Z,78.24
2023-02-11T17:49:28.579Z,78.49
2023-02-11T17:51:54.927Z,78.81
2023-02-11T17:54:21.333Z,79.16
2023-02-11T17:56:50.590Z,79.24
2023-02-11T17:59:17.168Z,79.26
2023-02-11T18:01:43.499Z,79.41
2023-02-11T18:04:14.402Z,79.64
2023-02-11T18:06:40.971Z,79.79
2023-02-11T18:09:07.408Z,79.94
2023-02-11T18:11:36.286Z,80.24
2023-02-11T18:14:04.497Z,80.17
2023-02-11T18:16:31.091Z,79.95
2023-02-11T18:18:58.664Z,79.69
2023-02-11T18:21:25.030Z,79.58
2023-02-11T18:23:51.435Z,79.71
2023-02-11T18:26:20.780Z,80.04
2023-02-11T18:28:47.821Z,80.31
2023-02-11T18:31:14.663Z,80.38
2023-02-11T18:33:42.039Z,80.71
2023-02-11T18:36:11.079Z,80.65
2023-02-11T18:38:37.821Z,81.02
2023-02-11T18:41:04.546Z,81.12
2023-02-11T18:43:33.449Z,81.41
2023-02-11T18:46:00.515Z,81.31
2023-02-11T18:48:27.514Z,81.44
2023-02-11T18:50:54.504Z,81.57
2023-02-11T18:53:21.486Z,81.68
2023-02-11T18:55:48.351Z,81.89
2023-02-11T18:58:15.486Z,81.65
2023-02-11T19:00:44.599Z,81.72
2023-02-11T19:03:10.915Z,81.64
2023-02-11T19:05:45.922Z,81.72
2023-02-11T19:08:13.016Z,81.88
2023-02-11T19:10:44.044Z,81.98
2023-02-11T19:13:11.184Z,82.35
2023-02-11T19:15:44.985Z,82.02
2023-02-11T19:18:14.708Z,82.12
2023-02-11T19:20:44.487Z,81.85
2023-02-11T19:23:11.344Z,82.19
2023-02-11T19:25:44.193Z,82.57
2023-02-11T19:28:10.579Z,82.54
2023-02-11T19:30:36.980Z,82.94
2023-02-11T19:33:03.388Z,82.98
2023-02-11T19:35:29.650Z,83.56
2023-02-11T19:37:55.981Z,82.56
2023-02-11T19:40:22.705Z,82.36
2023-02-11T19:42:48.996Z,82.59
2023-02-11T19:45:15.288Z,83.04
2023-02-11T19:47:41.566Z,82.88
2023-02-11T19:50:08.574Z,83.07
2023-02-11T19:52:37.980Z,83.22
2023-02-11T19:55:04.768Z,82.31
2023-02-11T19:57:31.030Z,82.34
2023-02-11T19:59:57.300Z,82.19
2023-02-11T20:02:23.642Z,82.14
2023-02-11T20:04:50.145Z,82.09
2023-02-11T20:07:16.443Z,82.42
2023-02-11T20:09:42.811Z,82.37
2023-02-11T20:12:09.938Z,82.23
2023-02-11T20:14:36.352Z,81.91
2023-02-11T20:17:02.729Z,81.80
2023-02-11T20:19:30.520Z,81.60
2023-02-11T20:21:56.852Z,81.79
2023-02-11T20:24:25.571Z,81.59
2023-02-11T20:26:55.267Z,81.93
2023-02-11T20:29:22.529Z,82.12
2023-02-11T20:31:50.222Z,82.34
2023-02-11T20:34:17.531Z,82.92
2023-02-11T20:36:51.259Z,83.36
2023-02-11T20:39:18.556Z,83.69
2023-02-11T20:41:45.976Z,82.37
2023-02-11T20:44:13.145Z,82.05
2023-02-11T20:46:43.112Z,82.29
2023-02-11T20:49:12.260Z,81.90
2023-02-11T20:51:38.823Z,82.33
2023-02-11T20:54:08.554Z,82.31
2023-02-11T20:56:36.795Z,82.71
2023-02-11T20:59:05.209Z,82.72
2023-02-11T21:01:34.486Z,82.52
2023-02-11T21:04:03.816Z,83.01
2023-02-11T21:06:36.447Z,82.77
2023-02-11T21:09:04.397Z,83.07
2023-02-11T21:11:31.304Z,83.33
2023-02-11T21:13:58.305Z,83.59
2023-02-11T21:16:24.843Z,83.27
2023-02-11T21:18:52.451Z,83.32
2023-02-11T21:21:19.641Z,83.65
2023-02-11T21:23:46.345Z,83.94
2023-02-11T21:26:13.319Z,84.50
2023-02-11T21:28:41.081Z,85.10
2023-02-11T21:31:07.776Z,85.56
2023-02-11T21:33:34.595Z,86.42
2023-02-11T21:36:03.811Z,86.63
2023-02-11T21:38:30.643Z,86.96
2023-02-11T21:41:03.294Z,87.19
2023-02-11T21:43:29.972Z,87.56
2023-02-11T21:45:56.615Z,88.02
2023-02-11T21:48:23.813Z,88.69
2023-02-11T21:50:50.121Z,89.04
2023-02-11T21:53:16.384Z,89.27
2023-02-11T21:55:43.255Z,89.51
2023-02-11T21:58:11.810Z,89.79
2023-02-11T22:00:38.424Z,89.26
2023-02-11T22:03:04.935Z,88.04
2023-02-11T22:05:31.271Z,87.62
2023-02-11T22:07:57.650Z,87.32
2023-02-11T22:10:24.043Z,87.04
2023-02-11T22:12:50.357Z,87.18
2023-02-11T22:15:16.657Z,87.10
2023-02-11T22:17:42.966Z,87.23
2023-02-11T22:20:10.096Z,87.39
2023-02-11T22:22:36.385Z,87.57
2023-02-11T22:25:03.958Z,87.33
2023-02-11T22:27:30.496Z,86.92
2023-02-11T22:29:56.748Z,86.98
2023-02-11T22:32:23.000Z,86.77
2023-02-11T22:34:51.500Z,86.83
2023-02-11T22:37:19.548Z,86.92
2023-02-11T22:39:45.882Z,87.06
2023-02-11T22:42:12.251Z,85.74
2023-02-11T22:44:38.627Z,85.99
2023-02-11T22:47:04.925Z,85.95
2023-02-11T22:49:33.091Z,86.16
2023-02-11T22:51:59.714Z,85.52
2023-02-11T22:54:26.333Z,85.41
2023-02-11T22:56:53.258Z,86.15
2023-02-11T22:59:20.321Z,86.20
2023-02-11T23:01:48.097Z,85.96
2023-02-11T23:04:15.961Z,85.80
2023-02-11T23:06:43.081Z,86.01
2023-02-11T23:09:12.222Z,86.67
2023-02-11T23:11:39.702Z,86.66
2023-02-11T23:14:08.389Z,87.02
2023-02-11T23:16:34.946Z,87.07
2023-02-11T23:19:04.680Z,87.11
2023-02-11T23:21:33.356Z,87.13
2023-02-11T23:24:02.581Z,87.42
2023-02-11T23:26:29.184Z,87.22
2023-02-11T23:28:57.801Z,87.13
2023-02-11T23:31:30.310Z,86.54
2023-02-11T23:33:57.028Z,86.67
2023-02-11T23:36:23.753Z,86.54
2023-02-11T23:38:50.089Z,86.68
2023-02-11T23:41:17.016Z,86.81
2023-02-11T23:43:43.608Z,86.99
2023-02-11T23:46:10.460Z,86.82
2023-02-11T23:48:37.580Z,86.12
2023-02-11T23:51:04.197Z,85.16
2023-02-11T23:53:30.593Z,84.94
2023-02-11T23:55:57.217Z,85.37
2023-02-11T23:58:23.668Z,85.55
